sensor_id;sensor_type;location;lat;lon;timestamp;P1;durP1;ratioP1;P2;durP2;ratioP2
3417;SDS011;68007;51.312;12.372;2023-02-28T00:01:40;3.90;;;2.50;;
3417;SDS011;68007;51.312;12.372;2023-02-28T00:04:08;4.63;;;2.60;;
3417;SDS011;68007;51.312;12.372;2023-02-28T00:06:35;3.30;;;2.53;;
3417;SDS011;68007;51.312;12.372;2023-02-28T00:09:04;3.97;;;2.50;;
3417;SDS011;68007;51.312;12.372;2023-02-28T00:11:32;5.90;;;2.47;;
3417;SDS011;68007;51.312;12.372;2023-02-28T00:13:59;4.77;;;2.37;;
3417;SDS011;68007;51.312;12.372;2023-02-28T00:16:27;3.37;;;2.40;;
3417;SDS011;68007;51.312;12.372;2023-02-28T00:18:54;3.90;;;2.60;;
3417;SDS011;68007;51.312;12.372;2023-02-28T00:21:22;4.07;;;2.47;;
3417;SDS011;68007;51.312;12.372;2023-02-28T00:23:49;4.27;;;2.77;;
3417;SDS011;68007;51.312;12.372;2023-02-28T00:26:18;5.03;;;2.67;;
3417;SDS011;68007;51.312;12.372;2023-02-28T00:28:46;3.57;;;2.50;;
3417;SDS011;68007;51.312;12.372;2023-02-28T00:31:14;5.40;;;3.00;;
3417;SDS011;68007;51.312;12.372;2023-02-28T00:33:41;5.00;;;2.90;;
3417;SDS011;68007;51.312;12.372;2023-02-28T00:36:09;2.80;;;2.13;;
3417;SDS011;68007;51.312;12.372;2023-02-28T00:38:38;3.37;;;2.17;;
3417;SDS011;68007;51.312;12.372;2023-02-28T00:41:07;5.23;;;3.03;;
3417;SDS011;68007;51.312;12.372;2023-02-28T00:43:37;4.93;;;2.97;;
3417;SDS011;68007;51.312;12.372;2023-02-28T00:46:05;4.20;;;2.70;;
3417;SDS011;68007;51.312;12.372;2023-02-28T00:48:33;3.67;;;2.33;;
3417;SDS011;68007;51.312;12.372;2023-02-28T00:51:01;5.30;;;2.87;;
3417;SDS011;68007;51.312;12.372;2023-02-28T00:53:29;8.20;;;2.43;;
3417;SDS011;68007;51.312;12.372;2023-02-28T00:55:58;2.60;;;2.33;;
3417;SDS011;68007;51.312;12.372;2023-02-28T00:58:25;4.87;;;3.03;;
3417;SDS011;68007;51.312;12.372;2023-02-28T01:00:54;4.70;;;2.23;;
3417;SDS011;68007;51.312;12.372;2023-02-28T01:03:22;4.17;;;3.10;;
3417;SDS011;68007;51.312;12.372;2023-02-28T01:05:50;4.87;;;2.50;;
3417;SDS011;68007;51.312;12.372;2023-02-28T01:08:18;6.17;;;3.00;;
3417;SDS011;68007;51.312;12.372;2023-02-28T01:10:46;6.10;;;3.30;;
3417;SDS011;68007;51.312;12.372;2023-02-28T01:13:13;5.60;;;2.80;;
3417;SDS011;68007;51.312;12.372;2023-02-28T01:15:43;4.50;;;2.70;;
3417;SDS011;68007;51.312;12.372;2023-02-28T01:18:16;5.20;;;2.73;;
3417;SDS011;68007;51.312;12.372;2023-02-28T01:20:44;4.87;;;3.00;;
3417;SDS011;68007;51.312;12.372;2023-02-28T01:23:12;3.63;;;2.57;;
3417;SDS011;68007;51.312;12.372;2023-02-28T01:25:40;3.77;;;2.60;;
3417;SDS011;68007;51.312;12.372;2023-02-28T01:28:07;6.43;;;2.93;;
3417;SDS011;68007;51.312;12.372;2023-02-28T01:30:35;2.83;;;2.50;;
3417;SDS011;68007;51.312;12.372;2023-02-28T01:33:03;4.50;;;2.80;;
3417;SDS011;68007;51.312;12.372;2023-02-28T01:35:33;4.40;;;2.63;;
3417;SDS011;68007;51.312;12.372;2023-02-28T01:38:01;4.20;;;2.80;;
3417;SDS011;68007;51.312;12.372;2023-02-28T01:40:29;3.20;;;2.50;;
3417;SDS011;68007;51.312;12.372;2023-02-28T01:42:56;4.47;;;2.60;;
3417;SDS011;68007;51.312;12.372;2023-02-28T01:45:26;5.63;;;3.30;;
3417;SDS011;68007;51.312;12.372;2023-02-28T01:47:55;5.13;;;3.20;;
3417;SDS011;68007;51.312;12.372;2023-02-28T01:50:28;5.87;;;3.10;;
3417;SDS011;68007;51.312;12.372;2023-02-28T01:53:00;4.20;;;2.90;;
3417;SDS011;68007;51.312;12.372;2023-02-28T01:55:31;5.63;;;2.80;;
3417;SDS011;68007;51.312;12.372;2023-02-28T01:58:00;5.60;;;3.23;;
3417;SDS011;68007;51.312;12.372;2023-02-28T02:00:30;9.17;;;3.03;;
3417;SDS011;68007;51.312;12.372;2023-02-28T02:02:58;5.70;;;3.60;;
3417;SDS011;68007;51.312;12.372;2023-02-28T02:05:28;6.23;;;2.97;;
3417;SDS011;68007;51.312;12.372;2023-02-28T02:07:58;6.10;;;3.27;;
3417;SDS011;68007;51.312;12.372;2023-02-28T02:10:32;3.83;;;2.93;;
3417;SDS011;68007;51.312;12.372;2023-02-28T02:15:54;4.37;;;2.97;;
3417;SDS011;68007;51.312;12.372;2023-02-28T02:18:29;5.70;;;3.77;;
3417;SDS011;68007;51.312;12.372;2023-02-28T02:21:15;3.20;;;2.20;;
3417;SDS011;68007;51.312;12.372;2023-02-28T02:27:16;6.87;;;3.10;;
3417;SDS011;68007;51.312;12.372;2023-02-28T02:30:21;5.80;;;2.77;;
3417;SDS011;68007;51.312;12.372;2023-02-28T02:33:19;6.10;;;2.77;;
3417;SDS011;68007;51.312;12.372;2023-02-28T02:36:17;5.30;;;3.40;;
3417;SDS011;68007;51.312;12.372;2023-02-28T02:38:49;4.03;;;2.87;;
3417;SDS011;68007;51.312;12.372;2023-02-28T02:41:23;5.03;;;2.40;;
3417;SDS011;68007;51.312;12.372;2023-02-28T02:43:56;5.80;;;3.27;;
3417;SDS011;68007;51.312;12.372;2023-02-28T02:46:29;3.83;;;2.80;;
3417;SDS011;68007;51.312;12.372;2023-02-28T02:49:02;4.20;;;2.63;;
3417;SDS011;68007;51.312;12.372;2023-02-28T02:51:34;4.40;;;2.70;;
3417;SDS011;68007;51.312;12.372;2023-02-28T02:54:04;6.60;;;2.80;;
3417;SDS011;68007;51.312;12.372;2023-02-28T02:56:35;4.87;;;3.13;;
3417;SDS011;68007;51.312;12.372;2023-02-28T02:59:06;4.50;;;3.30;;
3417;SDS011;68007;51.312;12.372;2023-02-28T03:01:37;5.27;;;3.60;;
3417;SDS011;68007;51.312;12.372;2023-02-28T03:04:09;3.90;;;3.10;;
3417;SDS011;68007;51.312;12.372;2023-02-28T03:06:41;3.80;;;3.07;;
3417;SDS011;68007;51.312;12.372;2023-02-28T03:09:08;5.63;;;3.33;;
3417;SDS011;68007;51.312;12.372;2023-02-28T03:11:36;9.50;;;3.53;;
3417;SDS011;68007;51.312;12.372;2023-02-28T03:14:10;7.73;;;3.57;;
3417;SDS011;68007;51.312;12.372;2023-02-28T03:16:59;5.53;;;2.93;;
3417;SDS011;68007;51.312;12.372;2023-02-28T03:20:04;5.00;;;2.60;;
3417;SDS011;68007;51.312;12.372;2023-02-28T03:22:44;5.03;;;2.90;;
3417;SDS011;68007;51.312;12.372;2023-02-28T03:25:20;7.27;;;3.30;;
3417;SDS011;68007;51.312;12.372;2023-02-28T03:27:59;4.60;;;2.80;;
3417;SDS011;68007;51.312;12.372;2023-02-28T03:30:33;4.50;;;3.30;;
3417;SDS011;68007;51.312;12.372;2023-02-28T03:33:06;6.47;;;3.07;;
3417;SDS011;68007;51.312;12.372;2023-02-28T03:35:39;6.90;;;3.50;;
3417;SDS011;68007;51.312;12.372;2023-02-28T03:38:11;3.00;;;2.70;;
3417;SDS011;68007;51.312;12.372;2023-02-28T03:40:43;5.53;;;3.37;;
3417;SDS011;68007;51.312;12.372;2023-02-28T03:43:16;10.47;;;4.40;;
3417;SDS011;68007;51.312;12.372;2023-02-28T03:45:48;4.03;;;3.00;;
3417;SDS011;68007;51.312;12.372;2023-02-28T03:48:19;5.63;;;3.47;;
3417;SDS011;68007;51.312;12.372;2023-02-28T03:50:53;6.60;;;3.53;;
3417;SDS011;68007;51.312;12.372;2023-02-28T03:53:28;10.93;;;3.10;;
3417;SDS011;68007;51.312;12.372;2023-02-28T03:55:59;5.43;;;3.00;;
3417;SDS011;68007;51.312;12.372;2023-02-28T03:58:31;6.40;;;3.07;;
3417;SDS011;68007;51.312;12.372;2023-02-28T04:01:05;8.87;;;3.13;;
3417;SDS011;68007;51.312;12.372;2023-02-28T04:03:36;5.20;;;3.53;;
3417;SDS011;68007;51.312;12.372;2023-02-28T04:06:05;5.37;;;3.37;;
3417;SDS011;68007;51.312;12.372;2023-02-28T04:08:41;3.50;;;2.57;;
3417;SDS011;68007;51.312;12.372;2023-02-28T04:11:11;3.90;;;2.70;;
3417;SDS011;68007;51.312;12.372;2023-02-28T04:13:44;5.50;;;3.20;;
3417;SDS011;68007;51.312;12.372;2023-02-28T04:16:12;4.20;;;3.20;;
3417;SDS011;68007;51.312;12.372;2023-02-28T04:18:40;4.70;;;2.90;;
3417;SDS011;68007;51.312;12.372;2023-02-28T04:21:09;4.80;;;3.30;;
3417;SDS011;68007;51.312;12.372;2023-02-28T04:23:37;6.60;;;3.57;;
3417;SDS011;68007;51.312;12.372;2023-02-28T04:26:06;6.13;;;3.20;;
3417;SDS011;68007;51.312;12.372;2023-02-28T04:28:34;3.83;;;2.90;;
3417;SDS011;68007;51.312;12.372;2023-02-28T04:31:04;5.50;;;3.60;;
3417;SDS011;68007;51.312;12.372;2023-02-28T04:33:32;5.87;;;3.50;;
3417;SDS011;68007;51.312;12.372;2023-02-28T04:36:00;6.40;;;3.77;;
3417;SDS011;68007;51.312;12.372;2023-02-28T04:38:29;6.77;;;3.47;;
3417;SDS011;68007;51.312;12.372;2023-02-28T04:40:59;6.80;;;3.20;;
3417;SDS011;68007;51.312;12.372;2023-02-28T04:43:28;9.00;;;3.90;;
3417;SDS011;68007;51.312;12.372;2023-02-28T04:45:57;6.47;;;4.00;;
3417;SDS011;68007;51.312;12.372;2023-02-28T04:48:28;5.90;;;3.70;;
3417;SDS011;68007;51.312;12.372;2023-02-28T04:50:59;5.70;;;3.17;;
3417;SDS011;68007;51.312;12.372;2023-02-28T04:53:27;6.30;;;3.90;;
3417;SDS011;68007;51.312;12.372;2023-02-28T04:55:54;6.93;;;4.20;;
3417;SDS011;68007;51.312;12.372;2023-02-28T04:58:22;8.03;;;3.60;;
3417;SDS011;68007;51.312;12.372;2023-02-28T05:00:51;5.80;;;3.17;;
3417;SDS011;68007;51.312;12.372;2023-02-28T05:03:19;6.00;;;3.43;;
3417;SDS011;68007;51.312;12.372;2023-02-28T05:05:48;8.47;;;3.17;;
3417;SDS011;68007;51.312;12.372;2023-02-28T05:08:15;5.40;;;3.60;;
3417;SDS011;68007;51.312;12.372;2023-02-28T05:10:43;8.03;;;3.80;;
3417;SDS011;68007;51.312;12.372;2023-02-28T05:13:11;5.13;;;3.23;;
3417;SDS011;68007;51.312;12.372;2023-02-28T05:15:39;5.10;;;3.17;;
3417;SDS011;68007;51.312;12.372;2023-02-28T05:18:09;5.63;;;3.20;;
3417;SDS011;68007;51.312;12.372;2023-02-28T05:20:36;4.50;;;3.17;;
3417;SDS011;68007;51.312;12.372;2023-02-28T05:23:04;12.20;;;3.20;;
3417;SDS011;68007;51.312;12.372;2023-02-28T05:25:31;5.40;;;3.13;;
3417;SDS011;68007;51.312;12.372;2023-02-28T05:27:59;6.53;;;3.23;;
3417;SDS011;68007;51.312;12.372;2023-02-28T05:30:26;5.97;;;4.13;;
3417;SDS011;68007;51.312;12.372;2023-02-28T05:32:54;8.03;;;3.60;;
3417;SDS011;68007;51.312;12.372;2023-02-28T05:35:23;4.00;;;3.20;;
3417;SDS011;68007;51.312;12.372;2023-02-28T05:37:51;8.53;;;3.87;;
3417;SDS011;68007;51.312;12.372;2023-02-28T05:40:18;6.87;;;3.50;;
3417;SDS011;68007;51.312;12.372;2023-02-28T05:42:46;4.90;;;3.20;;
3417;SDS011;68007;51.312;12.372;2023-02-28T05:45:14;5.40;;;3.80;;
3417;SDS011;68007;51.312;12.372;2023-02-28T05:47:42;3.80;;;3.23;;
3417;SDS011;68007;51.312;12.372;2023-02-28T05:50:10;9.73;;;3.50;;
3417;SDS011;68007;51.312;12.372;2023-02-28T05:52:39;9.03;;;4.07;;
3417;SDS011;68007;51.312;12.372;2023-02-28T05:55:07;5.40;;;3.13;;
3417;SDS011;68007;51.312;12.372;2023-02-28T05:57:35;7.00;;;4.00;;
3417;SDS011;68007;51.312;12.372;2023-02-28T06:00:03;6.77;;;3.27;;
3417;SDS011;68007;51.312;12.372;2023-02-28T06:02:31;11.40;;;3.40;;
3417;SDS011;68007;51.312;12.372;2023-02-28T06:04:59;8.57;;;3.37;;
3417;SDS011;68007;51.312;12.372;2023-02-28T06:07:26;7.60;;;3.43;;
3417;SDS011;68007;51.312;12.372;2023-02-28T06:09:55;5.20;;;3.40;;
3417;SDS011;68007;51.312;12.372;2023-02-28T06:12:22;7.33;;;3.60;;
3417;SDS011;68007;51.312;12.372;2023-02-28T06:14:50;11.43;;;3.60;;
3417;SDS011;68007;51.312;12.372;2023-02-28T06:17:17;7.03;;;3.60;;
3417;SDS011;68007;51.312;12.372;2023-02-28T06:19:45;6.83;;;3.60;;
3417;SDS011;68007;51.312;12.372;2023-02-28T06:22:13;5.97;;;3.40;;
3417;SDS011;68007;51.312;12.372;2023-02-28T06:24:41;5.80;;;3.73;;
3417;SDS011;68007;51.312;12.372;2023-02-28T06:27:10;6.10;;;3.70;;
3417;SDS011;68007;51.312;12.372;2023-02-28T06:29:37;7.70;;;3.97;;
3417;SDS011;68007;51.312;12.372;2023-02-28T06:32:05;4.77;;;3.40;;
3417;SDS011;68007;51.312;12.372;2023-02-28T06:34:33;6.13;;;3.30;;
3417;SDS011;68007;51.312;12.372;2023-02-28T06:37:00;7.73;;;3.80;;
3417;SDS011;68007;51.312;12.372;2023-02-28T06:39:28;10.13;;;3.60;;
3417;SDS011;68007;51.312;12.372;2023-02-28T06:41:55;6.60;;;3.53;;
3417;SDS011;68007;51.312;12.372;2023-02-28T06:44:24;7.00;;;4.23;;
3417;SDS011;68007;51.312;12.372;2023-02-28T06:46:52;7.10;;;3.90;;
3417;SDS011;68007;51.312;12.372;2023-02-28T06:49:19;6.00;;;3.50;;
3417;SDS011;68007;51.312;12.372;2023-02-28T06:51:47;6.90;;;4.30;;
3417;SDS011;68007;51.312;12.372;2023-02-28T06:54:15;6.33;;;3.50;;
3417;SDS011;68007;51.312;12.372;2023-02-28T06:56:43;5.73;;;3.87;;
3417;SDS011;68007;51.312;12.372;2023-02-28T06:59:10;5.33;;;3.67;;
3417;SDS011;68007;51.312;12.372;2023-02-28T07:01:39;7.40;;;4.03;;
3417;SDS011;68007;51.312;12.372;2023-02-28T07:04:07;7.53;;;4.20;;
3417;SDS011;68007;51.312;12.372;2023-02-28T07:06:34;7.33;;;4.00;;
3417;SDS011;68007;51.312;12.372;2023-02-28T07:09:02;11.70;;;4.53;;
3417;SDS011;68007;51.312;12.372;2023-02-28T07:11:30;10.60;;;4.23;;
3417;SDS011;68007;51.312;12.372;2023-02-28T07:13:58;8.40;;;4.40;;
3417;SDS011;68007;51.312;12.372;2023-02-28T07:16:25;6.70;;;3.87;;
3417;SDS011;68007;51.312;12.372;2023-02-28T07:18:54;6.77;;;3.93;;
3417;SDS011;68007;51.312;12.372;2023-02-28T07:21:22;7.97;;;4.47;;
3417;SDS011;68007;51.312;12.372;2023-02-28T07:23:50;7.90;;;4.53;;
3417;SDS011;68007;51.312;12.372;2023-02-28T07:26:18;6.53;;;3.73;;
3417;SDS011;68007;51.312;12.372;2023-02-28T07:28:47;9.40;;;4.33;;
3417;SDS011;68007;51.312;12.372;2023-02-28T07:31:15;7.97;;;4.47;;
3417;SDS011;68007;51.312;12.372;2023-02-28T07:33:44;9.97;;;4.90;;
3417;SDS011;68007;51.312;12.372;2023-02-28T07:36:13;9.73;;;4.13;;
3417;SDS011;68007;51.312;12.372;2023-02-28T07:38:43;8.57;;;4.80;;
3417;SDS011;68007;51.312;12.372;2023-02-28T07:41:13;9.50;;;4.70;;
3417;SDS011;68007;51.312;12.372;2023-02-28T07:43:42;12.67;;;4.27;;
3417;SDS011;68007;51.312;12.372;2023-02-28T07:46:10;8.47;;;4.33;;
3417;SDS011;68007;51.312;12.372;2023-02-28T07:48:40;10.60;;;4.57;;
3417;SDS011;68007;51.312;12.372;2023-02-28T07:51:09;9.07;;;4.83;;
3417;SDS011;68007;51.312;12.372;2023-02-28T07:53:38;12.43;;;5.40;;
3417;SDS011;68007;51.312;12.372;2023-02-28T07:56:06;13.97;;;4.80;;
3417;SDS011;68007;51.312;12.372;2023-02-28T07:58:34;7.47;;;4.80;;
3417;SDS011;68007;51.312;12.372;2023-02-28T08:01:05;10.60;;;4.30;;
3417;SDS011;68007;51.312;12.372;2023-02-28T08:03:33;9.47;;;4.93;;
3417;SDS011;68007;51.312;12.372;2023-02-28T08:06:01;9.90;;;5.27;;
3417;SDS011;68007;51.312;12.372;2023-02-28T08:08:29;9.67;;;4.83;;
3417;SDS011;68007;51.312;12.372;2023-02-28T08:10:59;9.93;;;4.97;;
3417;SDS011;68007;51.312;12.372;2023-02-28T08:13:27;8.60;;;4.27;;
3417;SDS011;68007;51.312;12.372;2023-02-28T08:15:56;8.37;;;4.57;;
3417;SDS011;68007;51.312;12.372;2023-02-28T08:18:23;7.60;;;4.27;;
3417;SDS011;68007;51.312;12.372;2023-02-28T08:20:51;9.43;;;4.40;;
3417;SDS011;68007;51.312;12.372;2023-02-28T08:23:18;8.07;;;4.33;;
3417;SDS011;68007;51.312;12.372;2023-02-28T08:25:52;7.23;;;4.50;;
3417;SDS011;68007;51.312;12.372;2023-02-28T08:28:21;7.40;;;4.50;;
3417;SDS011;68007;51.312;12.372;2023-02-28T08:30:49;19.20;;;4.70;;
3417;SDS011;68007;51.312;12.372;2023-02-28T08:33:16;7.80;;;4.30;;
3417;SDS011;68007;51.312;12.372;2023-02-28T08:35:44;11.50;;;4.30;;
3417;SDS011;68007;51.312;12.372;2023-02-28T08:38:12;8.90;;;4.00;;
3417;SDS011;68007;51.312;12.372;2023-02-28T08:40:40;7.87;;;4.27;;
3417;SDS011;68007;51.312;12.372;2023-02-28T08:43:08;7.27;;;4.10;;
3417;SDS011;68007;51.312;12.372;2023-02-28T08:45:37;7.17;;;4.10;;
3417;SDS011;68007;51.312;12.372;2023-02-28T08:48:04;6.87;;;3.80;;
3417;SDS011;68007;51.312;12.372;2023-02-28T08:50:32;5.67;;;3.73;;
3417;SDS011;68007;51.312;12.372;2023-02-28T08:52:59;8.17;;;3.50;;
3417;SDS011;68007;51.312;12.372;2023-02-28T08:55:27;8.53;;;4.20;;
3417;SDS011;68007;51.312;12.372;2023-02-28T08:57:54;9.53;;;4.10;;
3417;SDS011;68007;51.312;12.372;2023-02-28T09:00:22;7.10;;;3.80;;
3417;SDS011;68007;51.312;12.372;2023-02-28T09:02:51;7.50;;;3.70;;
3417;SDS011;68007;51.312;12.372;2023-02-28T09:05:20;8.00;;;3.33;;
3417;SDS011;68007;51.312;12.372;2023-02-28T09:07:49;6.40;;;3.73;;
3417;SDS011;68007;51.312;12.372;2023-02-28T09:10:16;4.43;;;3.20;;
3417;SDS011;68007;51.312;12.372;2023-02-28T09:12:44;7.70;;;4.00;;
3417;SDS011;68007;51.312;12.372;2023-02-28T09:15:12;8.33;;;3.50;;
3417;SDS011;68007;51.312;12.372;2023-02-28T09:17:40;5.93;;;3.50;;
3417;SDS011;68007;51.312;12.372;2023-02-28T09:20:10;10.37;;;4.10;;
3417;SDS011;68007;51.312;12.372;2023-02-28T09:22:38;7.97;;;3.53;;
3417;SDS011;68007;51.312;12.372;2023-02-28T09:25:06;8.20;;;4.50;;
3417;SDS011;68007;51.312;12.372;2023-02-28T09:27:33;9.80;;;4.90;;
3417;SDS011;68007;51.312;12.372;2023-02-28T09:30:03;6.17;;;4.10;;
3417;SDS011;68007;51.312;12.372;2023-02-28T09:32:31;8.03;;;4.00;;
3417;SDS011;68007;51.312;12.372;2023-02-28T09:34:58;8.70;;;4.40;;
3417;SDS011;68007;51.312;12.372;2023-02-28T09:37:27;7.80;;;4.50;;
3417;SDS011;68007;51.312;12.372;2023-02-28T09:39:56;6.63;;;3.50;;
3417;SDS011;68007;51.312;12.372;2023-02-28T09:42:25;5.80;;;3.80;;
3417;SDS011;68007;51.312;12.372;2023-02-28T09:44:57;5.80;;;3.83;;
3417;SDS011;68007;51.312;12.372;2023-02-28T09:47:27;6.50;;;4.57;;
3417;SDS011;68007;51.312;12.372;2023-02-28T09:49:59;6.43;;;3.90;;
3417;SDS011;68007;51.312;12.372;2023-02-28T09:52:35;8.40;;;3.83;;
3417;SDS011;68007;51.312;12.372;2023-02-28T09:55:09;5.10;;;4.03;;
3417;SDS011;68007;51.312;12.372;2023-02-28T09:57:57;9.30;;;4.20;;
3417;SDS011;68007;51.312;12.372;2023-02-28T10:00:27;5.57;;;3.60;;
3417;SDS011;68007;51.312;12.372;2023-02-28T10:03:12;10.17;;;4.17;;
3417;SDS011;68007;51.312;12.372;2023-02-28T10:05:54;5.83;;;3.33;;
3417;SDS011;68007;51.312;12.372;2023-02-28T10:08:31;6.40;;;3.60;;
3417;SDS011;68007;51.312;12.372;2023-02-28T10:11:09;8.37;;;3.83;;
3417;SDS011;68007;51.312;12.372;2023-02-28T10:13:41;4.73;;;3.27;;
3417;SDS011;68007;51.312;12.372;2023-02-28T10:16:18;8.30;;;3.80;;
3417;SDS011;68007;51.312;12.372;2023-02-28T10:18:57;8.50;;;3.83;;
3417;SDS011;68007;51.312;12.372;2023-02-28T10:21:30;8.33;;;3.87;;
3417;SDS011;68007;51.312;12.372;2023-02-28T10:24:04;6.97;;;3.57;;
3417;SDS011;68007;51.312;12.372;2023-02-28T10:26:40;9.40;;;4.23;;
3417;SDS011;68007;51.312;12.372;2023-02-28T10:29:10;9.30;;;4.43;;
3417;SDS011;68007;51.312;12.372;2023-02-28T10:31:38;5.00;;;3.03;;
3417;SDS011;68007;51.312;12.372;2023-02-28T10:34:07;6.80;;;4.07;;
3417;SDS011;68007;51.312;12.372;2023-02-28T10:36:38;5.73;;;3.87;;
3417;SDS011;68007;51.312;12.372;2023-02-28T10:42:03;8.27;;;4.23;;
3417;SDS011;68007;51.312;12.372;2023-02-28T10:44:31;5.23;;;3.53;;
3417;SDS011;68007;51.312;12.372;2023-02-28T10:46:58;5.83;;;3.90;;
3417;SDS011;68007;51.312;12.372;2023-02-28T10:49:27;10.43;;;4.10;;
3417;SDS011;68007;51.312;12.372;2023-02-28T10:51:56;4.40;;;3.73;;
3417;SDS011;68007;51.312;12.372;2023-02-28T10:54:27;10.83;;;4.40;;
3417;SDS011;68007;51.312;12.372;2023-02-28T10:57:15;7.73;;;4.30;;
3417;SDS011;68007;51.312;12.372;2023-02-28T10:59:45;6.70;;;3.80;;
3417;SDS011;68007;51.312;12.372;2023-02-28T11:02:31;6.93;;;4.33;;
3417;SDS011;68007;51.312;12.372;2023-02-28T11:05:00;5.50;;;3.77;;
3417;SDS011;68007;51.312;12.372;2023-02-28T11:07:27;5.63;;;3.77;;
3417;SDS011;68007;51.312;12.372;2023-02-28T11:09:56;8.87;;;4.50;;
3417;SDS011;68007;51.312;12.372;2023-02-28T11:12:27;6.43;;;4.13;;
3417;SDS011;68007;51.312;12.372;2023-02-28T11:14:59;6.40;;;4.40;;
3417;SDS011;68007;51.312;12.372;2023-02-28T11:17:30;6.47;;;4.53;;
3417;SDS011;68007;51.312;12.372;2023-02-28T11:19:59;9.47;;;4.30;;
3417;SDS011;68007;51.312;12.372;2023-02-28T11:22:31;7.27;;;3.97;;
3417;SDS011;68007;51.312;12.372;2023-02-28T11:25:02;7.83;;;4.40;;
3417;SDS011;68007;51.312;12.372;2023-02-28T11:30:31;6.70;;;4.00;;
3417;SDS011;68007;51.312;12.372;2023-02-28T11:33:01;6.50;;;4.13;;
3417;SDS011;68007;51.312;12.372;2023-02-28T11:35:45;6.90;;;4.60;;
3417;SDS011;68007;51.312;12.372;2023-02-28T11:38:14;7.47;;;4.40;;
3417;SDS011;68007;51.312;12.372;2023-02-28T11:40:43;7.80;;;3.90;;
3417;SDS011;68007;51.312;12.372;2023-02-28T11:43:20;7.57;;;4.60;;
3417;SDS011;68007;51.312;12.372;2023-02-28T11:46:08;10.80;;;4.37;;
3417;SDS011;68007;51.312;12.372;2023-02-28T11:48:47;8.47;;;4.37;;
3417;SDS011;68007;51.312;12.372;2023-02-28T11:51:27;9.60;;;4.30;;
3417;SDS011;68007;51.312;12.372;2023-02-28T11:54:07;6.53;;;4.40;;
3417;SDS011;68007;51.312;12.372;2023-02-28T11:56:51;7.77;;;4.63;;
3417;SDS011;68007;51.312;12.372;2023-02-28T11:59:30;8.00;;;4.80;;
3417;SDS011;68007;51.312;12.372;2023-02-28T12:02:17;7.83;;;5.27;;
3417;SDS011;68007;51.312;12.372;2023-02-28T12:04:52;8.43;;;5.50;;
3417;SDS011;68007;51.312;12.372;2023-02-28T12:07:49;7.40;;;4.27;;
3417;SDS011;68007;51.312;12.372;2023-02-28T12:10:24;10.13;;;5.70;;
3417;SDS011;68007;51.312;12.372;2023-02-28T12:13:02;10.53;;;4.93;;
3417;SDS011;68007;51.312;12.372;2023-02-28T12:15:47;8.53;;;5.03;;
3417;SDS011;68007;51.312;12.372;2023-02-28T12:21:28;8.17;;;4.87;;
3417;SDS011;68007;51.312;12.372;2023-02-28T12:24:10;8.13;;;4.67;;
3417;SDS011;68007;51.312;12.372;2023-02-28T12:26:48;8.63;;;5.33;;
3417;SDS011;68007;51.312;12.372;2023-02-28T12:29:19;10.77;;;5.83;;
3417;SDS011;68007;51.312;12.372;2023-02-28T12:31:53;9.17;;;5.10;;
3417;SDS011;68007;51.312;12.372;2023-02-28T12:34:27;9.00;;;5.10;;
3417;SDS011;68007;51.312;12.372;2023-02-28T12:37:01;11.13;;;5.50;;
3417;SDS011;68007;51.312;12.372;2023-02-28T12:39:35;7.40;;;4.93;;
3417;SDS011;68007;51.312;12.372;2023-02-28T12:42:07;6.90;;;5.23;;
3417;SDS011;68007;51.312;12.372;2023-02-28T12:44:40;8.23;;;5.70;;
3417;SDS011;68007;51.312;12.372;2023-02-28T12:47:14;9.60;;;5.73;;
3417;SDS011;68007;51.312;12.372;2023-02-28T12:49:44;8.77;;;5.93;;
3417;SDS011;68007;51.312;12.372;2023-02-28T12:52:17;10.83;;;5.93;;
3417;SDS011;68007;51.312;12.372;2023-02-28T12:54:50;8.90;;;5.90;;
3417;SDS011;68007;51.312;12.372;2023-02-28T12:57:25;10.50;;;6.00;;
3417;SDS011;68007;51.312;12.372;2023-02-28T13:00:01;8.93;;;5.50;;
3417;SDS011;68007;51.312;12.372;2023-02-28T13:02:46;8.77;;;5.77;;
3417;SDS011;68007;51.312;12.372;2023-02-28T13:05:49;10.23;;;5.93;;
3417;SDS011;68007;51.312;12.372;2023-02-28T13:08:38;16.73;;;6.13;;
3417;SDS011;68007;51.312;12.372;2023-02-28T13:11:23;11.20;;;6.20;;
3417;SDS011;68007;51.312;12.372;2023-02-28T13:13:56;11.70;;;6.57;;
3417;SDS011;68007;51.312;12.372;2023-02-28T13:16:25;11.47;;;6.33;;
3417;SDS011;68007;51.312;12.372;2023-02-28T13:18:56;8.97;;;6.13;;
3417;SDS011;68007;51.312;12.372;2023-02-28T13:21:41;8.60;;;6.30;;
3417;SDS011;68007;51.312;12.372;2023-02-28T13:24:11;9.10;;;5.93;;
3417;SDS011;68007;51.312;12.372;2023-02-28T13:33:23;10.77;;;5.90;;
3417;SDS011;68007;51.312;12.372;2023-02-28T13:38:52;8.10;;;5.80;;
3417;SDS011;68007;51.312;12.372;2023-02-28T13:44:16;9.23;;;5.23;;
3417;SDS011;68007;51.312;12.372;2023-02-28T13:49:54;11.83;;;6.37;;
3417;SDS011;68007;51.312;12.372;2023-02-28T13:52:45;10.47;;;6.30;;
3417;SDS011;68007;51.312;12.372;2023-02-28T13:55:24;9.20;;;5.40;;
3417;SDS011;68007;51.312;12.372;2023-02-28T13:58:02;10.83;;;5.73;;
3417;SDS011;68007;51.312;12.372;2023-02-28T14:01:03;9.97;;;5.90;;
3417;SDS011;68007;51.312;12.372;2023-02-28T14:03:43;9.60;;;6.00;;
3417;SDS011;68007;51.312;12.372;2023-02-28T14:06:23;10.23;;;6.10;;
3417;SDS011;68007;51.312;12.372;2023-02-28T14:08:58;11.77;;;6.73;;
3417;SDS011;68007;51.312;12.372;2023-02-28T14:11:32;11.87;;;6.30;;
3417;SDS011;68007;51.312;12.372;2023-02-28T14:14:01;11.97;;;6.07;;
3417;SDS011;68007;51.312;12.372;2023-02-28T14:16:35;12.87;;;6.13;;
3417;SDS011;68007;51.312;12.372;2023-02-28T14:19:10;11.97;;;6.70;;
3417;SDS011;68007;51.312;12.372;2023-02-28T14:21:43;9.33;;;5.70;;
3417;SDS011;68007;51.312;12.372;2023-02-28T14:24:24;8.60;;;5.90;;
3417;SDS011;68007;51.312;12.372;2023-02-28T14:27:23;13.33;;;6.60;;
3417;SDS011;68007;51.312;12.372;2023-02-28T14:30:03;11.30;;;6.40;;
3417;SDS011;68007;51.312;12.372;2023-02-28T14:32:58;10.43;;;6.67;;
3417;SDS011;68007;51.312;12.372;2023-02-28T14:35:45;12.83;;;6.90;;
3417;SDS011;68007;51.312;12.372;2023-02-28T14:38:23;8.63;;;6.40;;
3417;SDS011;68007;51.312;12.372;2023-02-28T14:40:56;9.30;;;6.00;;
3417;SDS011;68007;51.312;12.372;2023-02-28T14:43:27;12.67;;;6.80;;
3417;SDS011;68007;51.312;12.372;2023-02-28T14:45:56;12.83;;;5.83;;
3417;SDS011;68007;51.312;12.372;2023-02-28T14:48:25;11.43;;;6.73;;
3417;SDS011;68007;51.312;12.372;2023-02-28T14:50:54;11.70;;;6.70;;
3417;SDS011;68007;51.312;12.372;2023-02-28T14:53:25;10.10;;;6.13;;
3417;SDS011;68007;51.312;12.372;2023-02-28T14:55:56;9.47;;;6.27;;
3417;SDS011;68007;51.312;12.372;2023-02-28T14:58:24;11.23;;;6.30;;
3417;SDS011;68007;51.312;12.372;2023-02-28T15:00:54;9.40;;;6.90;;
3417;SDS011;68007;51.312;12.372;2023-02-28T15:03:24;8.80;;;6.40;;
3417;SDS011;68007;51.312;12.372;2023-02-28T15:05:58;15.50;;;7.23;;
3417;SDS011;68007;51.312;12.372;2023-02-28T15:08:26;15.07;;;9.00;;
3417;SDS011;68007;51.312;12.372;2023-02-28T15:10:57;13.47;;;6.77;;
3417;SDS011;68007;51.312;12.372;2023-02-28T15:13:30;11.00;;;7.13;;
3417;SDS011;68007;51.312;12.372;2023-02-28T15:16:03;10.27;;;6.30;;
3417;SDS011;68007;51.312;12.372;2023-02-28T15:18:33;12.00;;;6.90;;
3417;SDS011;68007;51.312;12.372;2023-02-28T15:21:11;8.93;;;6.90;;
3417;SDS011;68007;51.312;12.372;2023-02-28T15:23:41;12.73;;;7.03;;
3417;SDS011;68007;51.312;12.372;2023-02-28T15:26:13;10.30;;;6.93;;
3417;SDS011;68007;51.312;12.372;2023-02-28T15:28:43;12.40;;;6.90;;
3417;SDS011;68007;51.312;12.372;2023-02-28T15:31:19;11.67;;;6.87;;
3417;SDS011;68007;51.312;12.372;2023-02-28T15:33:53;12.37;;;6.80;;
3417;SDS011;68007;51.312;12.372;2023-02-28T15:36:24;10.83;;;6.83;;
3417;SDS011;68007;51.312;12.372;2023-02-28T15:38:54;13.13;;;8.50;;
3417;SDS011;68007;51.312;12.372;2023-02-28T15:41:25;12.57;;;7.20;;
3417;SDS011;68007;51.312;12.372;2023-02-28T15:46:50;14.40;;;8.10;;